sensor_id;sensor_type;location;lat;lon;timestamp;temperature;humidity
24560;DHT22;12727;49.934;8.656;2023-02-15T00:01:46;1.30;99.90
24560;DHT22;12727;49.934;8.656;2023-02-15T00:04:19;1.30;99.90
24560;DHT22;12727;49.934;8.656;2023-02-15T00:06:45;1.30;99.90
24560;DHT22;12727;49.934;8.656;2023-02-15T00:09:11;1.30;99.90
24560;DHT22;12727;49.934;8.656;2023-02-15T00:11:38;1.30;99.90
24560;DHT22;12727;49.934;8.656;2023-02-15T00:16:44;1.30;99.90
24560;DHT22;12727;49.934;8.656;2023-02-15T00:19:11;1.30;99.90
24560;DHT22;12727;49.934;8.656;2023-02-15T00:21:38;1.30;99.90
24560;DHT22;12727;49.934;8.656;2023-02-15T00:24:06;1.30;99.90
24560;DHT22;12727;49.934;8.656;2023-02-15T00:26:32;1.30;99.90
24560;DHT22;12727;49.934;8.656;2023-02-15T00:28:59;1.30;99.90
24560;DHT22;12727;49.934;8.656;2023-02-15T00:31:24;1.30;99.90
24560;DHT22;12727;49.934;8.656;2023-02-15T00:33:50;1.30;99.90
24560;DHT22;12727;49.934;8.656;2023-02-15T00:36:16;1.30;99.90
24560;DHT22;12727;49.934;8.656;2023-02-15T00:38:42;1.30;99.90
24560;DHT22;12727;49.934;8.656;2023-02-15T00:41:09;1.30;99.90
24560;DHT22;12727;49.934;8.656;2023-02-15T00:43:35;1.30;99.90
24560;DHT22;12727;49.934;8.656;2023-02-15T00:46:02;1.30;99.90
24560;DHT22;12727;49.934;8.656;2023-02-15T00:48:28;1.30;99.90
24560;DHT22;12727;49.934;8.656;2023-02-15T00:50:57;1.30;99.90
24560;DHT22;12727;49.934;8.656;2023-02-15T00:53:24;1.30;99.90
24560;DHT22;12727;49.934;8.656;2023-02-15T00:55:50;1.30;99.90
24560;DHT22;12727;49.934;8.656;2023-02-15T00:58:17;1.20;99.90
24560;DHT22;12727;49.934;8.656;2023-02-15T01:00:44;1.30;99.90
24560;DHT22;12727;49.934;8.656;2023-02-15T01:03:15;1.30;99.90
24560;DHT22;12727;49.934;8.656;2023-02-15T01:05:42;1.30;99.90
24560;DHT22;12727;49.934;8.656;2023-02-15T01:08:09;1.30;99.90
24560;DHT22;12727;49.934;8.656;2023-02-15T01:10:36;1.30;99.90
24560;DHT22;12727;49.934;8.656;2023-02-15T01:13:02;1.30;99.90
24560;DHT22;12727;49.934;8.656;2023-02-15T01:15:28;1.30;99.90
24560;DHT22;12727;49.934;8.656;2023-02-15T01:17:53;1.40;99.90
24560;DHT22;12727;49.934;8.656;2023-02-15T01:20:20;1.40;99.90
24560;DHT22;12727;49.934;8.656;2023-02-15T01:22:46;1.40;99.90
24560;DHT22;12727;49.934;8.656;2023-02-15T01:25:12;1.40;99.90
24560;DHT22;12727;49.934;8.656;2023-02-15T01:27:38;1.40;99.90
24560;DHT22;12727;49.934;8.656;2023-02-15T01:30:03;1.50;99.90
24560;DHT22;12727;49.934;8.656;2023-02-15T01:32:30;1.40;99.90
24560;DHT22;12727;49.934;8.656;2023-02-15T01:34:56;1.40;99.90
24560;DHT22;12727;49.934;8.656;2023-02-15T01:37:21;1.40;99.90
24560;DHT22;12727;49.934;8.656;2023-02-15T01:39:47;1.50;99.90
24560;DHT22;12727;49.934;8.656;2023-02-15T01:42:21;1.40;99.90
24560;DHT22;12727;49.934;8.656;2023-02-15T01:44:49;1.50;99.90
24560;DHT22;12727;49.934;8.656;2023-02-15T01:47:39;1.50;99.90
24560;DHT22;12727;49.934;8.656;2023-02-15T01:50:16;1.40;99.90
24560;DHT22;12727;49.934;8.656;2023-02-15T01:52:48;1.50;99.90
24560;DHT22;12727;49.934;8.656;2023-02-15T01:55:16;1.50;99.90
24560;DHT22;12727;49.934;8.656;2023-02-15T01:57:43;1.50;99.90
24560;DHT22;12727;49.934;8.656;2023-02-15T02:00:11;1.50;99.90
24560;DHT22;12727;49.934;8.656;2023-02-15T02:02:36;1.60;99.90
24560;DHT22;12727;49.934;8.656;2023-02-15T02:05:05;1.60;99.90
24560;DHT22;12727;49.934;8.656;2023-02-15T02:07:35;1.60;99.90
24560;DHT22;12727;49.934;8.656;2023-02-15T02:10:03;1.50;99.90
24560;DHT22;12727;49.934;8.656;2023-02-15T02:12:30;1.60;99.90
24560;DHT22;12727;49.934;8.656;2023-02-15T02:14:56;1.60;99.90
24560;DHT22;12727;49.934;8.656;2023-02-15T02:17:53;1.60;99.90
24560;DHT22;12727;49.934;8.656;2023-02-15T02:20:38;1.60;99.90
24560;DHT22;12727;49.934;8.656;2023-02-15T02:25:55;1.60;99.90
24560;DHT22;12727;49.934;8.656;2023-02-15T02:28:41;1.60;99.90
24560;DHT22;12727;49.934;8.656;2023-02-15T02:34:05;1.70;99.90
24560;DHT22;12727;49.934;8.656;2023-02-15T02:36:50;1.90;99.90
24560;DHT22;12727;49.934;8.656;2023-02-15T02:39:37;1.90;99.90
24560;DHT22;12727;49.934;8.656;2023-02-15T02:44:47;1.80;99.90
24560;DHT22;12727;49.934;8.656;2023-02-15T02:47:38;1.90;99.90
24560;DHT22;12727;49.934;8.656;2023-02-15T02:50:26;2.10;99.90
24560;DHT22;12727;49.934;8.656;2023-02-15T02:52:54;2.10;99.90
24560;DHT22;12727;49.934;8.656;2023-02-15T02:55:47;2.10;99.90
24560;DHT22;12727;49.934;8.656;2023-02-15T02:58:26;1.90;99.90
24560;DHT22;12727;49.934;8.656;2023-02-15T03:03:38;1.70;99.90
24560;DHT22;12727;49.934;8.656;2023-02-15T03:06:10;1.70;99.90
24560;DHT22;12727;49.934;8.656;2023-02-15T03:08:40;1.70;99.90
24560;DHT22;12727;49.934;8.656;2023-02-15T03:11:07;1.60;99.90
24560;DHT22;12727;49.934;8.656;2023-02-15T03:13:34;1.60;99.90
24560;DHT22;12727;49.934;8.656;2023-02-15T03:16:00;1.70;99.90
24560;DHT22;12727;49.934;8.656;2023-02-15T03:18:49;2.00;99.90
24560;DHT22;12727;49.934;8.656;2023-02-15T03:24:14;1.90;99.90
24560;DHT22;12727;49.934;8.656;2023-02-15T03:26:43;1.90;99.90
24560;DHT22;12727;49.934;8.656;2023-02-15T03:29:11;1.80;99.90
24560;DHT22;12727;49.934;8.656;2023-02-15T03:31:40;1.80;99.90
24560;DHT22;12727;49.934;8.656;2023-02-15T03:34:10;1.80;99.90
24560;DHT22;12727;49.934;8.656;2023-02-15T03:36:39;1.70;99.90
24560;DHT22;12727;49.934;8.656;2023-02-15T03:39:28;1.70;99.90
24560;DHT22;12727;49.934;8.656;2023-02-15T03:42:05;1.70;99.90
24560;DHT22;12727;49.934;8.656;2023-02-15T03:44:39;1.70;99.90
24560;DHT22;12727;49.934;8.656;2023-02-15T03:47:13;1.80;99.90
24560;DHT22;12727;49.934;8.656;2023-02-15T03:49:45;2.10;99.90
24560;DHT22;12727;49.934;8.656;2023-02-15T03:52:14;2.30;99.90
24560;DHT22;12727;49.934;8.656;2023-02-15T03:54:41;2.20;99.90
24560;DHT22;12727;49.934;8.656;2023-02-15T03:57:12;2.00;99.90
24560;DHT22;12727;49.934;8.656;2023-02-15T03:59:57;1.90;99.90
24560;DHT22;12727;49.934;8.656;2023-02-15T04:03:02;1.80;99.90
24560;DHT22;12727;49.934;8.656;2023-02-15T04:05:29;1.70;99.90
24560;DHT22;12727;49.934;8.656;2023-02-15T04:07:54;1.70;99.90
24560;DHT22;12727;49.934;8.656;2023-02-15T04:10:20;1.70;99.90
24560;DHT22;12727;49.934;8.656;2023-02-15T04:13:04;1.70;99.90
24560;DHT22;12727;49.934;8.656;2023-02-15T04:15:30;1.90;99.90
24560;DHT22;12727;49.934;8.656;2023-02-15T04:18:14;1.90;99.90
24560;DHT22;12727;49.934;8.656;2023-02-15T04:20:44;1.80;99.90
24560;DHT22;12727;49.934;8.656;2023-02-15T04:23:28;1.80;99.90
24560;DHT22;12727;49.934;8.656;2023-02-15T04:26:12;1.70;99.90
24560;DHT22;12727;49.934;8.656;2023-02-15T04:28:38;1.70;99.90
24560;DHT22;12727;49.934;8.656;2023-02-15T04:31:03;1.60;99.90
24560;DHT22;12727;49.934;8.656;2023-02-15T04:33:29;1.60;99.90
24560;DHT22;12727;49.934;8.656;2023-02-15T04:35:55;1.60;99.90
24560;DHT22;12727;49.934;8.656;2023-02-15T04:38:21;1.60;99.90
24560;DHT22;12727;49.934;8.656;2023-02-15T04:40:51;1.60;99.90
24560;DHT22;12727;49.934;8.656;2023-02-15T04:43:18;1.60;99.90
24560;DHT22;12727;49.934;8.656;2023-02-15T04:45:48;1.70;99.90
24560;DHT22;12727;49.934;8.656;2023-02-15T04:48:15;1.70;99.90
24560;DHT22;12727;49.934;8.656;2023-02-15T04:50:41;1.60;99.90
24560;DHT22;12727;49.934;8.656;2023-02-15T04:53:07;1.60;99.90
24560;DHT22;12727;49.934;8.656;2023-02-15T04:55:32;1.60;99.90
24560;DHT22;12727;49.934;8.656;2023-02-15T04:57:58;1.60;99.90
24560;DHT22;12727;49.934;8.656;2023-02-15T05:00:24;1.50;99.90
24560;DHT22;12727;49.934;8.656;2023-02-15T05:02:49;1.60;99.90
24560;DHT22;12727;49.934;8.656;2023-02-15T05:05:15;1.60;99.90
24560;DHT22;12727;49.934;8.656;2023-02-15T05:07:40;1.60;99.90
24560;DHT22;12727;49.934;8.656;2023-02-15T05:10:06;1.50;99.90
24560;DHT22;12727;49.934;8.656;2023-02-15T05:12:32;1.50;99.90
24560;DHT22;12727;49.934;8.656;2023-02-15T05:14:57;1.50;99.90
24560;DHT22;12727;49.934;8.656;2023-02-15T05:17:23;1.50;99.90
24560;DHT22;12727;49.934;8.656;2023-02-15T05:19:48;1.50;99.90
24560;DHT22;12727;49.934;8.656;2023-02-15T05:22:14;1.60;99.90
24560;DHT22;12727;49.934;8.656;2023-02-15T05:24:39;1.60;99.90
24560;DHT22;12727;49.934;8.656;2023-02-15T05:27:24;1.50;99.90
24560;DHT22;12727;49.934;8.656;2023-02-15T05:30:28;1.40;99.90
24560;DHT22;12727;49.934;8.656;2023-02-15T05:32:53;1.40;99.90
24560;DHT22;12727;49.934;8.656;2023-02-15T05:35:19;1.40;99.90
24560;DHT22;12727;49.934;8.656;2023-02-15T05:37:45;1.40;99.90
24560;DHT22;12727;49.934;8.656;2023-02-15T05:40:11;1.40;99.90
24560;DHT22;12727;49.934;8.656;2023-02-15T05:42:36;1.30;99.90
24560;DHT22;12727;49.934;8.656;2023-02-15T05:45:02;1.20;99.90
24560;DHT22;12727;49.934;8.656;2023-02-15T05:47:29;1.10;99.90
24560;DHT22;12727;49.934;8.656;2023-02-15T05:49:54;1.00;99.90
24560;DHT22;12727;49.934;8.656;2023-02-15T05:52:20;1.00;99.90
24560;DHT22;12727;49.934;8.656;2023-02-15T05:54:45;1.00;99.90
24560;DHT22;12727;49.934;8.656;2023-02-15T05:57:11;1.00;99.90
24560;DHT22;12727;49.934;8.656;2023-02-15T05:59:36;1.00;99.90
24560;DHT22;12727;49.934;8.656;2023-02-15T06:02:02;1.00;99.90
24560;DHT22;12727;49.934;8.656;2023-02-15T06:04:27;1.00;99.90
24560;DHT22;12727;49.934;8.656;2023-02-15T06:06:53;0.90;99.90
24560;DHT22;12727;49.934;8.656;2023-02-15T06:09:18;0.90;99.90
24560;DHT22;12727;49.934;8.656;2023-02-15T06:11:45;1.00;99.90
24560;DHT22;12727;49.934;8.656;2023-02-15T06:14:11;1.00;99.90
24560;DHT22;12727;49.934;8.656;2023-02-15T06:16:36;1.00;99.90
24560;DHT22;12727;49.934;8.656;2023-02-15T06:19:02;1.00;99.90
24560;DHT22;12727;49.934;8.656;2023-02-15T06:21:29;1.00;99.90
24560;DHT22;12727;49.934;8.656;2023-02-15T06:23:55;0.90;99.90
24560;DHT22;12727;49.934;8.656;2023-02-15T06:26:21;0.80;99.90
24560;DHT22;12727;49.934;8.656;2023-02-15T06:28:46;0.90;99.90
24560;DHT22;12727;49.934;8.656;2023-02-15T06:31:12;1.00;99.90
24560;DHT22;12727;49.934;8.656;2023-02-15T06:33:37;0.90;99.90
24560;DHT22;12727;49.934;8.656;2023-02-15T06:36:04;0.90;99.90
24560;DHT22;12727;49.934;8.656;2023-02-15T06:38:30;0.90;99.90
24560;DHT22;12727;49.934;8.656;2023-02-15T06:40:56;0.80;99.90
24560;DHT22;12727;49.934;8.656;2023-02-15T06:43:21;0.90;99.90
24560;DHT22;12727;49.934;8.656;2023-02-15T06:45:47;0.90;99.90
24560;DHT22;12727;49.934;8.656;2023-02-15T06:48:12;0.80;99.90
24560;DHT22;12727;49.934;8.656;2023-02-15T06:50:39;0.80;99.90
24560;DHT22;12727;49.934;8.656;2023-02-15T06:53:04;0.80;99.90
24560;DHT22;12727;49.934;8.656;2023-02-15T06:55:30;0.80;99.90
24560;DHT22;12727;49.934;8.656;2023-02-15T06:57:55;0.80;99.90
24560;DHT22;12727;49.934;8.656;2023-02-15T07:00:21;0.80;99.90
24560;DHT22;12727;49.934;8.656;2023-02-15T07:02:53;0.70;99.90
24560;DHT22;12727;49.934;8.656;2023-02-15T07:05:21;0.70;99.90
24560;DHT22;12727;49.934;8.656;2023-02-15T07:07:46;0.70;99.90
24560;DHT22;12727;49.934;8.656;2023-02-15T07:10:12;0.80;99.90
24560;DHT22;12727;49.934;8.656;2023-02-15T07:12:37;0.80;99.90
24560;DHT22;12727;49.934;8.656;2023-02-15T07:15:17;0.70;99.90
24560;DHT22;12727;49.934;8.656;2023-02-15T07:17:46;0.70;99.90
24560;DHT22;12727;49.934;8.656;2023-02-15T07:20:22;0.70;99.90
24560;DHT22;12727;49.934;8.656;2023-02-15T07:22:49;0.70;99.90
24560;DHT22;12727;49.934;8.656;2023-02-15T07:25:15;0.70;99.90
24560;DHT22;12727;49.934;8.656;2023-02-15T07:27:41;0.80;99.90
24560;DHT22;12727;49.934;8.656;2023-02-15T07:30:09;0.80;99.90
24560;DHT22;12727;49.934;8.656;2023-02-15T07:32:35;0.70;99.90
24560;DHT22;12727;49.934;8.656;2023-02-15T07:35:01;0.60;99.90
24560;DHT22;12727;49.934;8.656;2023-02-15T07:37:27;0.60;99.90
24560;DHT22;12727;49.934;8.656;2023-02-15T07:39:52;0.60;99.90
24560;DHT22;12727;49.934;8.656;2023-02-15T07:42:18;0.60;99.90
24560;DHT22;12727;49.934;8.656;2023-02-15T07:44:45;0.60;99.90
24560;DHT22;12727;49.934;8.656;2023-02-15T07:47:11;0.60;99.90
24560;DHT22;12727;49.934;8.656;2023-02-15T07:49:37;0.60;99.90
24560;DHT22;12727;49.934;8.656;2023-02-15T07:52:03;0.60;99.90
24560;DHT22;12727;49.934;8.656;2023-02-15T07:54:29;0.70;99.90
24560;DHT22;12727;49.934;8.656;2023-02-15T07:56:55;0.70;99.90
24560;DHT22;12727;49.934;8.656;2023-02-15T07:59:20;0.70;99.90
24560;DHT22;12727;49.934;8.656;2023-02-15T08:01:46;0.70;99.90
24560;DHT22;12727;49.934;8.656;2023-02-15T08:04:11;0.70;99.90
24560;DHT22;12727;49.934;8.656;2023-02-15T08:06:38;0.80;99.90
24560;DHT22;12727;49.934;8.656;2023-02-15T08:09:05;0.80;99.90
24560;DHT22;12727;49.934;8.656;2023-02-15T08:11:33;0.80;99.90
24560;DHT22;12727;49.934;8.656;2023-02-15T08:14:04;0.90;99.90
24560;DHT22;12727;49.934;8.656;2023-02-15T08:16:32;0.90;99.90
24560;DHT22;12727;49.934;8.656;2023-02-15T08:19:00;1.00;99.90
24560;DHT22;12727;49.934;8.656;2023-02-15T08:21:28;1.00;99.90
24560;DHT22;12727;49.934;8.656;2023-02-15T08:23:54;1.10;99.90
24560;DHT22;12727;49.934;8.656;2023-02-15T08:26:21;1.10;99.90
24560;DHT22;12727;49.934;8.656;2023-02-15T08:28:47;1.10;99.90
24560;DHT22;12727;49.934;8.656;2023-02-15T08:31:14;1.20;99.90
24560;DHT22;12727;49.934;8.656;2023-02-15T08:33:42;1.20;99.90
24560;DHT22;12727;49.934;8.656;2023-02-15T08:36:13;1.20;99.90
24560;DHT22;12727;49.934;8.656;2023-02-15T08:38:40;1.20;99.90
24560;DHT22;12727;49.934;8.656;2023-02-15T08:41:25;1.20;99.90
24560;DHT22;12727;49.934;8.656;2023-02-15T08:43:53;1.20;99.90
24560;DHT22;12727;49.934;8.656;2023-02-15T08:46:20;1.20;99.90
24560;DHT22;12727;49.934;8.656;2023-02-15T08:48:47;1.10;99.90
24560;DHT22;12727;49.934;8.656;2023-02-15T08:51:18;1.20;99.90
24560;DHT22;12727;49.934;8.656;2023-02-15T08:53:49;1.30;99.90
24560;DHT22;12727;49.934;8.656;2023-02-15T08:56:17;1.30;99.90
24560;DHT22;12727;49.934;8.656;2023-02-15T08:58:42;1.40;99.90
24560;DHT22;12727;49.934;8.656;2023-02-15T09:01:10;1.40;99.90
24560;DHT22;12727;49.934;8.656;2023-02-15T09:03:36;1.40;99.90
24560;DHT22;12727;49.934;8.656;2023-02-15T09:06:02;1.40;99.90
24560;DHT22;12727;49.934;8.656;2023-02-15T09:08:28;1.40;99.90
24560;DHT22;12727;49.934;8.656;2023-02-15T09:10:54;1.40;99.90
24560;DHT22;12727;49.934;8.656;2023-02-15T09:13:20;1.40;99.90
24560;DHT22;12727;49.934;8.656;2023-02-15T09:15:46;1.50;99.90
24560;DHT22;12727;49.934;8.656;2023-02-15T09:18:12;1.60;99.90
24560;DHT22;12727;49.934;8.656;2023-02-15T09:20:43;1.70;99.90
24560;DHT22;12727;49.934;8.656;2023-02-15T09:23:08;1.80;99.90
24560;DHT22;12727;49.934;8.656;2023-02-15T09:25:34;1.80;99.90
24560;DHT22;12727;49.934;8.656;2023-02-15T09:27:59;1.80;99.90
24560;DHT22;12727;49.934;8.656;2023-02-15T09:30:25;1.80;99.90
24560;DHT22;12727;49.934;8.656;2023-02-15T09:32:50;1.80;99.90
24560;DHT22;12727;49.934;8.656;2023-02-15T09:35:16;1.80;99.90
24560;DHT22;12727;49.934;8.656;2023-02-15T09:37:42;1.80;99.90
24560;DHT22;12727;49.934;8.656;2023-02-15T09:40:08;1.80;99.90
24560;DHT22;12727;49.934;8.656;2023-02-15T09:50:23;1.90;99.90
24560;DHT22;12727;49.934;8.656;2023-02-15T09:53:07;1.90;99.90
24560;DHT22;12727;49.934;8.656;2023-02-15T10:01:16;2.30;99.90
24560;DHT22;12727;49.934;8.656;2023-02-15T10:06:35;2.60;99.90
24560;DHT22;12727;49.934;8.656;2023-02-15T10:15:11;2.60;99.90
24560;DHT22;12727;49.934;8.656;2023-02-15T10:18:13;2.50;99.90
24560;DHT22;12727;49.934;8.656;2023-02-15T10:28:16;2.30;99.90
24560;DHT22;12727;49.934;8.656;2023-02-15T10:30:51;2.20;99.90
24560;DHT22;12727;49.934;8.656;2023-02-15T10:33:39;2.20;99.90
24560;DHT22;12727;49.934;8.656;2023-02-15T10:36:37;2.30;99.90
24560;DHT22;12727;49.934;8.656;2023-02-15T10:44:56;2.40;99.90
24560;DHT22;12727;49.934;8.656;2023-02-15T10:55:50;2.40;99.90
24560;DHT22;12727;49.934;8.656;2023-02-15T11:01:46;2.40;99.90
24560;DHT22;12727;49.934;8.656;2023-02-15T11:06:44;2.60;99.90
24560;DHT22;12727;49.934;8.656;2023-02-15T11:09:14;2.60;99.90
24560;DHT22;12727;49.934;8.656;2023-02-15T11:11:45;2.70;99.90
24560;DHT22;12727;49.934;8.656;2023-02-15T11:14:27;2.70;99.90
24560;DHT22;12727;49.934;8.656;2023-02-15T11:17:16;2.60;99.90
24560;DHT22;12727;49.934;8.656;2023-02-15T11:22:17;2.50;99.90
24560;DHT22;12727;49.934;8.656;2023-02-15T11:24:44;2.50;99.90
24560;DHT22;12727;49.934;8.656;2023-02-15T11:27:22;2.60;99.90
24560;DHT22;12727;49.934;8.656;2023-02-15T11:30:04;2.70;99.90
24560;DHT22;12727;49.934;8.656;2023-02-15T11:35:02;2.80;99.90
24560;DHT22;12727;49.934;8.656;2023-02-15T11:37:50;2.70;99.90
24560;DHT22;12727;49.934;8.656;2023-02-15T11:40:33;2.60;99.90
24560;DHT22;12727;49.934;8.656;2023-02-15T11:43:10;2.70;99.90
24560;DHT22;12727;49.934;8.656;2023-02-15T11:45:37;2.80;99.90
24560;DHT22;12727;49.934;8.656;2023-02-15T11:48:13;2.80;99.90
24560;DHT22;12727;49.934;8.656;2023-02-15T11:50:40;2.70;99.90
24560;DHT22;12727;49.934;8.656;2023-02-15T11:53:19;2.60;99.90
24560;DHT22;12727;49.934;8.656;2023-02-15T11:55:53;2.80;99.90
24560;DHT22;12727;49.934;8.656;2023-02-15T12:01:33;2.80;99.90
24560;DHT22;12727;49.934;8.656;2023-02-15T12:04:24;3.00;99.90
24560;DHT22;12727;49.934;8.656;2023-02-15T12:07:15;3.30;99.90
24560;DHT22;12727;49.934;8.656;2023-02-15T12:09:58;3.20;99.90
24560;DHT22;12727;49.934;8.656;2023-02-15T12:12:28;3.20;99.90
24560;DHT22;12727;49.934;8.656;2023-02-15T12:14:59;3.20;99.90
24560;DHT22;12727;49.934;8.656;2023-02-15T12:17:27;3.40;99.90
24560;DHT22;12727;49.934;8.656;2023-02-15T12:20:01;3.30;99.90
24560;DHT22;12727;49.934;8.656;2023-02-15T12:22:29;3.70;99.90
24560;DHT22;12727;49.934;8.656;2023-02-15T12:24:59;3.80;99.90
24560;DHT22;12727;49.934;8.656;2023-02-15T12:27:33;3.60;99.90
24560;DHT22;12727;49.934;8.656;2023-02-15T12:30:13;3.40;99.90
24560;DHT22;12727;49.934;8.656;2023-02-15T12:32:53;3.30;99.90
24560;DHT22;12727;49.934;8.656;2023-02-15T12:38:00;3.20;99.90
24560;DHT22;12727;49.934;8.656;2023-02-15T12:40:32;3.20;99.90
24560;DHT22;12727;49.934;8.656;2023-02-15T12:42:59;3.30;99.90
24560;DHT22;12727;49.934;8.656;2023-02-15T12:45:30;3.30;99.90
24560;DHT22;12727;49.934;8.656;2023-02-15T12:48:13;3.30;99.90
24560;DHT22;12727;49.934;8.656;2023-02-15T12:50:45;3.40;99.90
24560;DHT22;12727;49.934;8.656;2023-02-15T12:53:31;3.40;99.90
24560;DHT22;12727;49.934;8.656;2023-02-15T12:56:02;3.50;99.90
24560;DHT22;12727;49.934;8.656;2023-02-15T12:58:33;3.50;99.90
24560;DHT22;12727;49.934;8.656;2023-02-15T13:04:04;3.90;99.90
24560;DHT22;12727;49.934;8.656;2023-02-15T13:06:33;3.80;99.90
24560;DHT22;12727;49.934;8.656;2023-02-15T13:09:16;3.50;99.90
24560;DHT22;12727;49.934;8.656;2023-02-15T13:11:44;3.60;99.90
24560;DHT22;12727;49.934;8.656;2023-02-15T13:14:19;3.70;99.90
24560;DHT22;12727;49.934;8.656;2023-02-15T13:16:47;3.90;99.90
24560;DHT22;12727;49.934;8.656;2023-02-15T13:19:16;3.90;99.90
24560;DHT22;12727;49.934;8.656;2023-02-15T13:21:46;3.90;99.90
24560;DHT22;12727;49.934;8.656;2023-02-15T13:26:57;4.10;99.90
24560;DHT22;12727;49.934;8.656;2023-02-15T13:29:31;4.00;99.90
24560;DHT22;12727;49.934;8.656;2023-02-15T13:32:04;4.00;99.90
24560;DHT22;12727;49.934;8.656;2023-02-15T13:34:34;3.90;99.90
24560;DHT22;12727;49.934;8.656;2023-02-15T13:39:55;4.00;99.90
24560;DHT22;12727;49.934;8.656;2023-02-15T13:42:28;3.90;99.90
24560;DHT22;12727;49.934;8.656;2023-02-15T13:47:57;3.90;99.90
24560;DHT22;12727;49.934;8.656;2023-02-15T13:56:00;3.80;99.90
24560;DHT22;12727;49.934;8.656;2023-02-15T13:58:50;3.90;99.90
24560;DHT22;12727;49.934;8.656;2023-02-15T14:10:31;4.10;99.90
24560;DHT22;12727;49.934;8.656;2023-02-15T14:15:53;4.20;99.90
24560;DHT22;12727;49.934;8.656;2023-02-15T14:18:44;3.90;99.90
24560;DHT22;12727;49.934;8.656;2023-02-15T14:21:42;4.00;99.90
24560;DHT22;12727;49.934;8.656;2023-02-15T14:24:30;3.90;99.90
24560;DHT22;12727;49.934;8.656;2023-02-15T14:27:40;4.00;99.90
24560;DHT22;12727;49.934;8.656;2023-02-15T14:32:46;4.30;99.90
24560;DHT22;12727;49.934;8.656;2023-02-15T14:35:18;4.40;99.90
24560;DHT22;12727;49.934;8.656;2023-02-15T14:38:07;4.60;99.90
24560;DHT22;12727;49.934;8.656;2023-02-15T14:43:44;4.70;99.90
24560;DHT22;12727;49.934;8.656;2023-02-15T14:49:22;4.50;99.90
24560;DHT22;12727;49.934;8.656;2023-02-15T14:57:02;4.50;99.90
24560;DHT22;12727;49.934;8.656;2023-02-15T15:04:33;4.30;99.90
24560;DHT22;12727;49.934;8.656;2023-02-15T15:09:42;4.10;99.90
24560;DHT22;12727;49.934;8.656;2023-02-15T15:14:50;4.10;99.90
24560;DHT22;12727;49.934;8.656;2023-02-15T15:20:03;4.30;99.90
24560;DHT22;12727;49.934;8.656;2023-02-15T15:22:33;4.30;99.90
24560;DHT22;12727;49.934;8.656;2023-02-15T15:44:01;3.50;99.90
24560;DHT22;12727;49.934;8.656;2023-02-15T15:46:56;3.40;99.90
24560;DHT22;12727;49.934;8.656;2023-02-15T15:49:29;3.50;99.90
24560;DHT22;12727;49.934;8.656;2023-02-15T15:52:07;3.40;99.90
24560;DHT22;12727;49.934;8.656;2023-02-15T15:54:34;3.30;99.90
24560;DHT22;12727;49.934;8.656;2023-02-15T15:57:05;3.20;99.90
24560;DHT22;12727;49.934;8.656;2023-02-15T15:59:36;3.20;99.90
24560;DHT22;12727;49.934;8.656;2023-02-15T16:02:13;3.20;99.90
24560;DHT22;12727;49.934;8.656;2023-02-15T16:04:40;3.30;99.90
24560;DHT22;12727;49.934;8.656;2023-02-15T16:10:03;3.30;99.90
24560;DHT22;12727;49.934;8.656;2023-02-15T16:12:34;3.10;99.90
24560;DHT22;12727;49.934;8.656;2023-02-15T16:15:14;3.00;99.90
24560;DHT22;12727;49.934;8.656;2023-02-15T16:17:42;3.00;99.90
24560;DHT22;12727;49.934;8.656;2023-02-15T16:20:17;3.00;99.90
24560;DHT22;12727;49.934;8.656;2023-02-15T16:22:46;3.00;99.90
24560;DHT22;12727;49.934;8.656;2023-02-15T16:28:08;2.90;99.90
24560;DHT22;12727;49.934;8.656;2023-02-15T16:30:36;2.90;99.90
24560;DHT22;12727;49.934;8.656;2023-02-15T16:33:14;2.90;99.90
24560;DHT22;12727;49.934;8.656;2023-02-15T16:36:01;2.70;99.90
24560;DHT22;12727;49.934;8.656;2023-02-15T16:41:14;2.80;99.90
24560;DHT22;12727;49.934;8.656;2023-02-15T16:43:43;2.80;99.90
24560;DHT22;12727;49.934;8.656;2023-02-15T16:46:31;2.80;99.90
24560;DHT22;12727;49.934;8.656;2023-02-15T16:49:01;2.90;99.90
24560;DHT22;12727;49.934;8.656;2023-02-15T16:51:30;2.90;99.90
24560;DHT22;12727;49.934;8.656;2023-02-15T16:53:58;2.80;99.90
24560;DHT22;12727;49.934;8.656;2023-02-15T16:56:28;2.60;99.90
24560;DHT22;12727;49.934;8.656;2023-02-15T16:58:56;2.60;99.90
24560;DHT22;12727;49.934;8.656;2023-02-15T17:01:26;2.60;99.90
24560;DHT22;12727;49.934;8.656;2023-02-15T17:04:21;2.50;99.90
24560;DHT22;12727;49.934;8.656;2023-02-15T17:07:03;2.60;99.90
24560;DHT22;12727;49.934;8.656;2023-02-15T17:09:29;2.70;99.90
24560;DHT22;12727;49.934;8.656;2023-02-15T17:11:55;2.70;99.90
24560;DHT22;12727;49.934;8.656;2023-02-15T17:14:37;2.60;99.90
24560;DHT22;12727;49.934;8.656;2023-02-15T17:17:11;2.60;99.90
24560;DHT22;12727;49.934;8.656;2023-02-15T17:19:50;2.60;99.90
24560;DHT22;12727;49.934;8.656;2023-02-15T17:22:25;2.70;99.90
24560;DHT22;12727;49.934;8.656;2023-02-15T17:25:01;2.70;99.90
24560;DHT22;12727;49.934;8.656;2023-02-15T17:27:30;2.80;99.90
24560;DHT22;12727;49.934;8.656;2023-02-15T17:30:03;2.70;99.90
24560;DHT22;12727;49.934;8.656;2023-02-15T17:32:37;2.70;99.90
24560;DHT22;12727;49.934;8.656;2023-02-15T17:37:47;2.50;99.90
24560;DHT22;12727;49.934;8.656;2023-02-15T17:40:40;2.60;99.90
24560;DHT22;12727;49.934;8.656;2023-02-15T17:43:06;2.60;99.90
24560;DHT22;12727;49.934;8.656;2023-02-15T17:45:35;2.70;99.90
24560;DHT22;12727;49.934;8.656;2023-02-15T17:48:04;2.90;99.90
24560;DHT22;12727;49.934;8.656;2023-02-15T17:50:30;2.90;99.90
24560;DHT22;12727;49.934;8.656;2023-02-15T17:52:57;2.80;99.90
24560;DHT22;12727;49.934;8.656;2023-02-15T17:55:24;2.70;99.90
24560;DHT22;12727;49.934;8.656;2023-02-15T17:58:13;2.60;99.90
24560;DHT22;12727;49.934;8.656;2023-02-15T18:00:57;2.60;99.90
24560;DHT22;12727;49.934;8.656;2023-02-15T18:03:46;2.70;99.90
24560;DHT22;12727;49.934;8.656;2023-02-15T18:06:32;2.80;99.90
24560;DHT22;12727;49.934;8.656;2023-02-15T18:09:18;2.80;99.90
24560;DHT22;12727;49.934;8.656;2023-02-15T18:12:22;2.70;99.90
24560;DHT22;12727;49.934;8.656;2023-02-15T18:14:49;2.80;99.90
24560;DHT22;12727;49.934;8.656;2023-02-15T18:17:16;2.70;99.90
24560;DHT22;12727;49.934;8.656;2023-02-15T18:19:43;2.70;99.90
24560;DHT22;12727;49.934;8.656;2023-02-15T18:22:10;2.60;99.90
24560;DHT22;12727;49.934;8.656;2023-02-15T18:24:36;2.70;99.90
24560;DHT22;12727;49.934;8.656;2023-02-15T18:27:04;2.70;99.90
24560;DHT22;12727;49.934;8.656;2023-02-15T18:29:29;2.60;99.90
24560;DHT22;12727;49.934;8.656;2023-02-15T18:31:55;2.50;99.90
24560;DHT22;12727;49.934;8.656;2023-02-15T18:34:24;2.50;99.90
24560;DHT22;12727;49.934;8.656;2023-02-15T18:36:51;2.40;99.90
24560;DHT22;12727;49.934;8.656;2023-02-15T18:39:29;2.60;99.90
24560;DHT22;12727;49.934;8.656;2023-02-15T18:41:56;2.70;99.90
24560;DHT22;12727;49.934;8.656;2023-02-15T18:44:22;2.70;99.90
24560;DHT22;12727;49.934;8.656;2023-02-15T18:46:48;2.70;99.90
24560;DHT22;12727;49.934;8.656;2023-02-15T18:49:14;2.60;99.90
24560;DHT22;12727;49.934;8.656;2023-02-15T18:51:40;2.50;99.90
24560;DHT22;12727;49.934;8.656;2023-02-15T18:54:19;2.60;99.90